Time;durP1;ratioP1;P1;durP2;ratioP2;P2;SDS_P1;SDS_P2;PMS_P1;PMS_P2;Temp;Humidity;BMP_temperature;BMP_pressure;BME280_temperature;BME280_humidity;BME280_pressure;Samples;Min_cycle;Max_cycle;Signal;HPM_P1;HPM_P2
2022/03/16 00:01:09;;;;;;;;;2.00;0.00;19.40;99.90;;;;;;5008830;28;9020;-47
2022/03/16 00:03:39;;;;;;;;;0.00;0.00;19.40;99.90;;;;;;5013242;28;9078;-49
2022/03/16 00:06:11;;;;;;;;;0.00;0.00;19.30;99.90;;;;;;5010624;28;9128;-47
2022/03/16 00:08:42;;;;;;;;;0.00;0.00;19.20;99.90;;;;;;5013209;28;9798;-47
2022/03/16 00:11:13;;;;;;;;;0.00;0.00;19.20;99.90;;;;;;5009246;28;9156;-46
2022/03/16 00:13:43;;;;;;;;;2.67;1.00;19.20;99.90;;;;;;5010785;28;9295;-45
2022/03/16 00:16:15;;;;;;;;;0.00;0.00;19.20;99.90;;;;;;5012028;28;9455;-45
2022/03/16 00:18:46;;;;;;;;;0.00;0.00;19.20;99.90;;;;;;5014379;28;9315;-46
2022/03/16 00:21:17;;;;;;;;;1.00;1.00;19.20;99.90;;;;;;5013759;28;9244;-47
2022/03/16 00:23:48;;;;;;;;;0.00;0.00;19.10;99.90;;;;;;5012247;28;11027;-48
2022/03/16 00:26:19;;;;;;;;;1.33;1.00;19.00;99.90;;;;;;5014581;28;9208;-48
2022/03/16 00:28:49;;;;;;;;;0.33;0.33;19.00;99.90;;;;;;5014674;28;9856;-45
2022/03/16 00:31:20;;;;;;;;;1.00;1.00;19.00;99.90;;;;;;5013574;28;9296;-45
2022/03/16 00:33:52;;;;;;;;;1.00;1.00;18.90;99.90;;;;;;5009498;28;9434;-45
2022/03/16 00:36:22;;;;;;;;;2.00;1.00;18.90;99.90;;;;;;5013813;28;10167;-44
2022/03/16 00:38:54;;;;;;;;;1.00;1.00;18.90;99.90;;;;;;5012809;28;9306;-47
2022/03/16 00:41:25;;;;;;;;;0.33;0.33;18.90;99.90;;;;;;5011477;28;9454;-46
2022/03/16 00:43:56;;;;;;;;;0.00;0.00;18.90;99.90;;;;;;5011805;28;9407;-46
2022/03/16 00:46:27;;;;;;;;;1.00;1.00;18.90;99.90;;;;;;5009400;28;9623;-45
2022/03/16 00:48:58;;;;;;;;;1.00;1.00;18.80;99.90;;;;;;5011359;28;9441;-48
2022/03/16 00:51:29;;;;;;;;;1.00;1.00;18.80;99.90;;;;;;5008836;28;9554;-46
2022/03/16 00:54:01;;;;;;;;;0.00;0.00;18.80;99.90;;;;;;5024786;28;9663;-48
2022/03/16 00:56:31;;;;;;;;;1.33;1.33;18.80;99.90;;;;;;5010906;28;9474;-45
2022/03/16 00:59:01;;;;;;;;;2.00;0.00;18.80;99.90;;;;;;5010323;28;10385;-47
2022/03/16 01:01:32;;;;;;;;;0.00;0.00;18.70;99.90;;;;;;5024987;28;9467;-46
2022/03/16 01:04:04;;;;;;;;;1.00;1.00;18.70;99.90;;;;;;5010991;28;9636;-48
2022/03/16 01:06:35;;;;;;;;;1.00;1.00;18.70;99.90;;;;;;5006236;28;9475;-46
2022/03/16 01:09:05;;;;;;;;;0.75;0.75;18.70;99.90;;;;;;5009447;28;9725;-48
2022/03/16 01:11:37;;;;;;;;;0.33;0.33;18.60;99.90;;;;;;5010112;28;9743;-47
2022/03/16 01:14:10;;;;;;;;;0.00;0.00;18.70;99.90;;;;;;5011549;28;9420;-47
2022/03/16 01:16:42;;;;;;;;;0.00;0.00;18.70;99.90;;;;;;5008392;28;9757;-52
2022/03/16 01:19:14;;;;;;;;;0.00;0.00;18.70;99.90;;;;;;5006562;28;10439;-46
2022/03/16 01:21:45;;;;;;;;;0.00;0.00;18.70;99.90;;;;;;5012195;28;9744;-47
2022/03/16 01:24:16;;;;;;;;;0.00;0.00;18.60;99.90;;;;;;5010024;28;9420;-46
2022/03/16 01:26:48;;;;;;;;;1.25;0.00;18.50;99.90;;;;;;5010872;28;9623;-44
2022/03/16 01:29:18;;;;;;;;;0.00;0.00;18.40;99.90;;;;;;5010209;28;9828;-45
2022/03/16 01:31:50;;;;;;;;;0.25;0.25;18.40;99.90;;;;;;5010230;28;9870;-48
2022/03/16 01:34:22;;;;;;;;;0.75;0.75;18.30;99.90;;;;;;5025231;28;9787;-50
2022/03/16 01:36:52;;;;;;;;;1.50;1.50;18.30;99.90;;;;;;5010905;28;9946;-46
2022/03/16 01:39:23;;;;;;;;;1.75;1.75;18.20;99.90;;;;;;5008612;28;9837;-49
2022/03/16 01:41:55;;;;;;;;;2.75;2.75;18.20;99.90;;;;;;5011011;28;10044;-46
2022/03/16 01:44:52;;;;;;;;;3.25;3.25;18.20;99.90;;;;;;5008913;28;10271;-47
2022/03/16 01:47:24;;;;;;;;;7.25;7.25;18.20;99.90;;;;;;5008897;28;10202;-47
2022/03/16 01:49:56;;;;;;;;;4.75;4.75;18.10;99.90;;;;;;5023025;28;10307;-45
2022/03/16 01:52:28;;;;;;;;;4.00;4.00;18.00;99.90;;;;;;5010277;28;10927;-48
2022/03/16 01:55:04;;;;;;;;;4.25;4.25;18.10;99.90;;;;;;5024073;28;9928;-45
2022/03/16 01:57:36;;;;;;;;;1.75;1.75;18.10;99.90;;;;;;5006711;28;10268;-46
2022/03/16 02:00:08;;;;;;;;;0.50;0.50;17.90;99.90;;;;;;5007663;28;10991;-49
2022/03/16 02:02:41;;;;;;;;;0.00;0.00;17.90;99.90;;;;;;5009025;28;10375;-44
2022/03/16 02:05:13;;;;;;;;;0.50;0.50;17.90;99.90;;;;;;5010123;28;9881;-45
2022/03/16 02:07:44;;;;;;;;;0.00;0.00;17.80;99.90;;;;;;5011566;28;10299;-50
2022/03/16 02:10:16;;;;;;;;;1.00;1.00;17.80;99.90;;;;;;5006012;28;9798;-47
2022/03/16 02:12:51;;;;;;;;;0.50;0.50;17.60;99.90;;;;;;5007536;28;9948;-48
2022/03/16 02:15:23;;;;;;;;;1.00;1.00;17.70;99.90;;;;;;5010235;28;10023;-49
2022/03/16 02:17:55;;;;;;;;;0.00;0.00;17.70;99.90;;;;;;5004098;28;9942;-44
2022/03/16 02:20:27;;;;;;;;;7.00;7.00;17.70;99.90;;;;;;5007982;28;9765;-46
2022/03/16 02:23:06;;;;;;;;;1.75;1.75;17.70;99.90;;;;;;5013547;28;10314;-47
2022/03/16 02:25:54;;;;;;;;;1.00;1.00;17.70;99.90;;;;;;5017589;28;9930;-46
2022/03/16 02:28:25;;;;;;;;;1.00;1.00;17.60;99.90;;;;;;5009900;28;10013;-46
2022/03/16 02:30:56;;;;;;;;;0.00;0.00;17.50;99.90;;;;;;5006783;28;10121;-47
2022/03/16 02:33:26;;;;;;;;;0.00;0.00;17.50;99.90;;;;;;5007430;28;10063;-48
2022/03/16 02:35:58;;;;;;;;;1.00;1.00;17.40;99.90;;;;;;5010954;28;11000;-49
2022/03/16 02:38:29;;;;;;;;;1.00;1.00;17.40;99.90;;;;;;5010519;28;10258;-46
2022/03/16 02:40:59;;;;;;;;;2.75;2.75;17.30;99.90;;;;;;5011634;28;10312;-49
2022/03/16 02:43:30;;;;;;;;;2.50;2.50;17.20;99.90;;;;;;5007630;28;10338;-46
2022/03/16 02:46:00;;;;;;;;;4.25;4.25;17.20;99.90;;;;;;5009217;28;10479;-47
2022/03/16 02:48:32;;;;;;;;;5.75;5.75;17.20;99.90;;;;;;5010844;28;10444;-46
2022/03/16 02:51:03;;;;;;;;;9.00;9.00;17.10;99.90;;;;;;5010613;28;10791;-45
2022/03/16 02:53:35;;;;;;;;;10.75;10.75;17.20;99.90;;;;;;5010564;28;10691;-48
2022/03/16 02:56:07;;;;;;;;;10.75;10.75;17.20;99.90;;;;;;5012899;28;11327;-47
2022/03/16 02:58:37;;;;;;;;;12.75;11.25;17.20;99.90;;;;;;5023361;28;10862;-48
2022/03/16 03:01:08;;;;;;;;;9.75;9.75;17.20;99.90;;;;;;5010794;28;11475;-48
2022/03/16 03:03:41;;;;;;;;;9.00;9.00;17.10;99.90;;;;;;5011703;28;10998;-47
2022/03/16 03:06:11;;;;;;;;;9.00;9.00;17.10;99.90;;;;;;5010954;28;10731;-49
2022/03/16 03:08:42;;;;;;;;;8.00;8.00;17.10;99.90;;;;;;5008637;28;10970;-50
2022/03/16 03:11:12;;;;;;;;;4.75;4.75;17.10;99.90;;;;;;5012206;28;10818;-46
2022/03/16 03:13:43;;;;;;;;;4.25;4.25;16.90;99.90;;;;;;5010651;28;10652;-46
2022/03/16 03:16:14;;;;;;;;;5.50;4.00;17.00;99.90;;;;;;5007470;28;11459;-49
2022/03/16 03:18:45;;;;;;;;;1.75;1.75;17.00;99.90;;;;;;5023015;28;10890;-45
2022/03/16 03:21:17;;;;;;;;;0.00;0.00;17.00;99.90;;;;;;5010512;28;10846;-44
2022/03/16 03:23:47;;;;;;;;;0.00;0.00;16.80;99.90;;;;;;5011136;28;10306;-45
2022/03/16 03:26:18;;;;;;;;;0.25;0.25;16.80;99.90;;;;;;5012514;28;10113;-45
2022/03/16 03:28:49;;;;;;;;;1.00;1.00;16.80;99.90;;;;;;5010525;28;10238;-50
2022/03/16 03:31:19;;;;;;;;;0.00;0.00;16.80;99.90;;;;;;5011137;28;10222;-48
2022/03/16 03:33:49;;;;;;;;;0.00;0.00;16.70;99.90;;;;;;5012555;28;10178;-54
2022/03/16 03:36:21;;;;;;;;;0.00;0.00;16.70;99.90;;;;;;5009109;28;10151;-49
2022/03/16 03:38:52;;;;;;;;;0.00;0.00;16.70;99.90;;;;;;5010767;28;10167;-47
2022/03/16 03:41:23;;;;;;;;;0.00;0.00;16.70;99.90;;;;;;5010597;28;10241;-48
2022/03/16 03:43:54;;;;;;;;;0.00;0.00;16.80;99.90;;;;;;5007905;28;11171;-44
2022/03/16 03:46:25;;;;;;;;;0.00;0.00;16.70;99.90;;;;;;5008666;28;10315;-53
2022/03/16 03:48:56;;;;;;;;;0.00;0.00;16.80;99.90;;;;;;5009591;28;10887;-48
2022/03/16 03:51:27;;;;;;;;;0.00;0.00;16.70;99.90;;;;;;5011411;28;10128;-50
2022/03/16 03:53:58;;;;;;;;;0.00;0.00;16.70;99.90;;;;;;5009061;28;10178;-46
2022/03/16 03:56:30;;;;;;;;;0.00;0.00;16.70;99.90;;;;;;5007043;28;10187;-48
2022/03/16 03:58:59;;;;;;;;;0.00;0.00;16.60;99.90;;;;;;5011094;28;10242;-47
2022/03/16 04:01:32;;;;;;;;;1.00;1.00;16.60;99.90;;;;;;5002689;28;10146;-50
2022/03/16 04:04:03;;;;;;;;;0.00;0.00;16.50;99.90;;;;;;5009002;28;10946;-47
2022/03/16 04:06:34;;;;;;;;;1.25;1.25;16.50;99.90;;;;;;5005229;28;10215;-46
2022/03/16 04:09:05;;;;;;;;;1.00;1.00;16.50;99.90;;;;;;5010544;28;10361;-49
2022/03/16 04:11:36;;;;;;;;;0.00;0.00;16.40;99.90;;;;;;5010590;28;10551;-45
2022/03/16 04:14:10;;;;;;;;;0.50;0.50;16.40;99.90;;;;;;5006525;28;10316;-49
2022/03/16 04:16:39;;;;;;;;;0.00;0.00;16.50;99.90;;;;;;5006237;28;10430;-49
2022/03/16 04:19:13;;;;;;;;;0.00;0.00;16.40;99.90;;;;;;5007805;28;11101;-47
2022/03/16 04:21:45;;;;;;;;;0.00;0.00;16.30;99.90;;;;;;5007441;28;10394;-45
2022/03/16 04:24:15;;;;;;;;;0.00;0.00;16.30;99.90;;;;;;5008168;28;10637;-47
2022/03/16 04:26:46;;;;;;;;;0.00;0.00;16.30;99.90;;;;;;5011787;28;10384;-49
2022/03/16 04:29:17;;;;;;;;;0.00;0.00;16.30;99.90;;;;;;5008216;28;10478;-49
2022/03/16 04:31:48;;;;;;;;;0.00;0.00;16.40;99.90;;;;;;5019803;28;10364;-49
2022/03/16 04:34:19;;;;;;;;;2.50;1.00;16.30;99.90;;;;;;5012330;28;11559;-49
2022/03/16 04:36:49;;;;;;;;;0.00;0.00;16.20;99.90;;;;;;5010382;28;10560;-44
2022/03/16 04:39:19;;;;;;;;;0.50;0.50;16.20;99.90;;;;;;5008063;28;10326;-47
2022/03/16 04:41:51;;;;;;;;;0.00;0.00;16.20;99.90;;;;;;5012185;28;10619;-47
2022/03/16 04:44:21;;;;;;;;;0.00;0.00;16.20;99.90;;;;;;5007341;28;10635;-47
2022/03/16 04:46:52;;;;;;;;;0.75;0.75;16.10;99.90;;;;;;5007544;28;10403;-48
2022/03/16 04:49:23;;;;;;;;;1.25;1.25;16.10;99.90;;;;;;5012473;28;10975;-46
2022/03/16 04:51:52;;;;;;;;;0.00;0.00;16.10;99.90;;;;;;5010590;28;10701;-49
2022/03/16 04:54:23;;;;;;;;;1.00;1.00;16.10;99.90;;;;;;5011684;28;10463;-48
2022/03/16 04:56:54;;;;;;;;;0.75;0.75;16.10;99.90;;;;;;5007308;28;10565;-47
2022/03/16 04:59:25;;;;;;;;;0.00;0.00;16.10;99.90;;;;;;5007244;28;10548;-48
2022/03/16 05:01:56;;;;;;;;;1.00;1.00;16.00;99.90;;;;;;5010031;28;10530;-47
2022/03/16 05:04:28;;;;;;;;;1.00;1.00;16.00;99.90;;;;;;5026425;28;10564;-48
2022/03/16 05:06:59;;;;;;;;;0.50;0.50;15.90;99.90;;;;;;5009811;28;10657;-47
2022/03/16 05:09:30;;;;;;;;;0.00;0.00;15.90;99.90;;;;;;5007116;28;10433;-47
2022/03/16 05:12:01;;;;;;;;;1.00;1.00;15.80;99.90;;;;;;5008705;28;10700;-44
2022/03/16 05:14:31;;;;;;;;;1.25;0.00;15.80;99.90;;;;;;5007656;28;10564;-50
2022/03/16 05:17:02;;;;;;;;;1.00;1.00;15.80;99.90;;;;;;5012951;28;10766;-48
2022/03/16 05:19:32;;;;;;;;;1.75;1.00;15.70;99.90;;;;;;5012223;28;10618;-47
2022/03/16 05:22:04;;;;;;;;;1.50;1.00;15.60;99.90;;;;;;5015197;28;10682;-45
2022/03/16 05:24:34;;;;;;;;;0.00;0.00;15.60;99.90;;;;;;5013992;28;10887;-49
2022/03/16 05:27:06;;;;;;;;;2.00;0.75;15.50;99.90;;;;;;5014623;28;10875;-46
2022/03/16 05:29:37;;;;;;;;;1.00;1.00;15.60;99.90;;;;;;5014062;28;10660;-46
2022/03/16 05:32:08;;;;;;;;;1.00;1.00;15.60;99.90;;;;;;5009810;28;10835;-49
2022/03/16 05:34:39;;;;;;;;;1.00;1.00;15.60;99.90;;;;;;5011397;28;10889;-47
2022/03/16 05:37:10;;;;;;;;;2.25;0.00;15.60;99.90;;;;;;5022853;28;11473;-47
2022/03/16 05:39:41;;;;;;;;;1.00;1.00;15.60;99.90;;;;;;5010355;28;10850;-47
2022/03/16 05:42:12;;;;;;;;;0.00;0.00;15.60;99.90;;;;;;5007305;28;10768;-46
2022/03/16 05:44:43;;;;;;;;;1.00;1.00;15.50;99.90;;;;;;5008319;28;10762;-46
2022/03/16 05:47:14;;;;;;;;;0.00;0.00;15.50;99.90;;;;;;5008567;28;10715;-45
2022/03/16 05:49:44;;;;;;;;;1.00;1.00;15.50;99.90;;;;;;5009069;28;10681;-50
2022/03/16 05:52:17;;;;;;;;;0.50;0.50;15.50;99.90;;;;;;5007816;28;10895;-46
2022/03/16 05:54:49;;;;;;;;;1.00;1.00;15.50;99.90;;;;;;5007912;28;10730;-52
2022/03/16 05:57:21;;;;;;;;;1.00;1.00;15.40;99.90;;;;;;5012549;28;10622;-48
2022/03/16 05:59:52;;;;;;;;;3.00;1.50;15.30;99.90;;;;;;5010843;28;10835;-46
2022/03/16 06:02:23;;;;;;;;;0.50;0.50;15.30;99.90;;;;;;5013092;28;12287;-45
2022/03/16 06:04:52;;;;;;;;;0.00;0.00;15.30;99.90;;;;;;5009852;28;10621;-45
2022/03/16 06:07:22;;;;;;;;;2.00;2.00;15.40;99.90;;;;;;5004585;28;10647;-45
2022/03/16 06:09:52;;;;;;;;;1.00;1.00;15.40;99.90;;;;;;5007592;28;10897;-48
2022/03/16 06:12:22;;;;;;;;;1.00;1.00;15.30;99.90;;;;;;5013860;28;10849;-48
2022/03/16 06:14:53;;;;;;;;;1.00;1.00;15.40;99.90;;;;;;5009318;28;10859;-46
2022/03/16 06:17:23;;;;;;;;;2.00;2.00;15.40;99.90;;;;;;5006788;28;10822;-47
2022/03/16 06:19:54;;;;;;;;;1.75;1.00;15.30;99.90;;;;;;5005739;28;11074;-46
2022/03/16 06:22:24;;;;;;;;;1.00;1.00;15.20;99.90;;;;;;5009219;28;10981;-48
2022/03/16 06:24:54;;;;;;;;;2.75;1.00;15.20;99.90;;;;;;5011359;28;10815;-49
2022/03/16 06:27:26;;;;;;;;;3.25;2.00;15.30;99.90;;;;;;5008804;28;10834;-45
2022/03/16 06:29:57;;;;;;;;;1.75;1.75;15.30;99.90;;;;;;5008394;28;10660;-47
2022/03/16 06:32:28;;;;;;;;;1.25;0.75;15.30;99.90;;;;;;5006046;28;10816;-46
2022/03/16 06:35:00;;;;;;;;;3.00;2.00;15.20;99.90;;;;;;5010233;28;10904;-45
2022/03/16 06:37:31;;;;;;;;;1.00;1.00;15.30;99.90;;;;;;5002931;28;10911;-49
2022/03/16 06:40:03;;;;;;;;;2.25;2.25;15.20;99.90;;;;;;5023502;28;11068;-46
2022/03/16 06:42:34;;;;;;;;;1.50;1.50;15.20;99.90;;;;;;5006863;28;10996;-46
2022/03/16 06:45:04;;;;;;;;;1.75;1.75;15.20;99.90;;;;;;5022010;28;11000;-48
2022/03/16 06:47:38;;;;;;;;;4.00;2.50;15.20;99.90;;;;;;5004738;28;10769;-49
2022/03/16 06:50:09;;;;;;;;;0.00;0.00;15.20;99.90;;;;;;5007334;28;10979;-47
2022/03/16 06:52:40;;;;;;;;;1.50;1.50;15.20;99.90;;;;;;5007294;28;10787;-48
2022/03/16 06:55:11;;;;;;;;;2.75;2.75;15.20;99.90;;;;;;5007240;28;10657;-46
2022/03/16 06:57:42;;;;;;;;;2.00;2.00;15.20;99.90;;;;;;5011033;28;11027;-46
2022/03/16 07:00:13;;;;;;;;;2.00;2.00;15.10;99.90;;;;;;5007528;28;10911;-46
2022/03/16 07:03:07;;;;;;;;;2.50;2.50;15.10;99.90;;;;;;5006481;28;11799;-47
2022/03/16 07:05:40;;;;;;;;;1.00;1.00;15.10;99.90;;;;;;5011459;28;10589;-49
2022/03/16 07:08:12;;;;;;;;;2.25;2.00;15.10;99.90;;;;;;5008729;28;10944;-48
2022/03/16 07:10:44;;;;;;;;;1.75;1.75;15.20;99.90;;;;;;5014047;28;10945;-45
2022/03/16 07:13:15;;;;;;;;;2.50;2.50;15.10;99.90;;;;;;5009686;28;11590;-49
2022/03/16 07:15:46;;;;;;;;;3.25;2.75;15.10;99.90;;;;;;5009041;28;11688;-49
2022/03/16 07:18:19;;;;;;;;;3.00;3.00;15.10;99.90;;;;;;5010008;28;11186;-46
2022/03/16 07:20:50;;;;;;;;;1.25;1.25;15.00;99.90;;;;;;5004694;28;11107;-47
2022/03/16 07:23:20;;;;;;;;;3.75;2.25;15.10;99.90;;;;;;5007822;28;11023;-45
2022/03/16 07:25:53;;;;;;;;;2.00;2.00;15.00;99.90;;;;;;5008439;28;11023;-47
2022/03/16 07:28:23;;;;;;;;;2.50;2.50;15.00;99.90;;;;;;5011769;28;11061;-48
2022/03/16 07:30:56;;;;;;;;;2.25;2.00;15.00;99.90;;;;;;5003409;28;11091;-47
2022/03/16 07:33:26;;;;;;;;;3.00;3.00;15.00;99.90;;;;;;5028441;28;11133;-46
2022/03/16 07:35:58;;;;;;;;;2.50;1.75;14.90;99.90;;;;;;5008734;28;11296;-48
2022/03/16 07:38:30;;;;;;;;;3.00;3.00;14.90;99.90;;;;;;5010628;28;10912;-47
2022/03/16 07:41:02;;;;;;;;;2.00;2.00;14.80;99.90;;;;;;5004475;28;11250;-47
2022/03/16 07:43:32;;;;;;;;;4.50;3.00;14.80;99.90;;;;;;5012943;28;11859;-49
2022/03/16 07:46:03;;;;;;;;;2.50;2.50;14.80;99.90;;;;;;5009374;28;11248;-47
2022/03/16 07:48:36;;;;;;;;;3.50;2.00;14.80;99.90;;;;;;5005885;28;11072;-49
2022/03/16 07:51:09;;;;;;;;;3.75;2.00;14.80;99.90;;;;;;5009256;28;11459;-49
2022/03/16 07:53:39;;;;;;;;;2.00;2.00;14.80;99.90;;;;;;5011072;28;10975;-49
2022/03/16 07:56:10;;;;;;;;;2.50;2.50;14.80;99.90;;;;;;5006703;28;11086;-50
2022/03/16 07:58:42;;;;;;;;;3.75;3.00;14.80;99.90;;;;;;5007178;28;11032;-49
2022/03/16 08:01:12;;;;;;;;;2.50;2.50;14.70;99.90;;;;;;5007771;28;10972;-47
2022/03/16 08:03:43;;;;;;;;;3.25;3.00;14.70;99.90;;;;;;5009159;28;11921;-47
2022/03/16 08:06:14;;;;;;;;;4.50;3.25;14.70;99.90;;;;;;5008199;28;11425;-44
2022/03/16 08:08:50;;;;;;;;;3.00;3.00;14.70;99.90;;;;;;5007069;28;11825;-46
2022/03/16 08:11:21;;;;;;;;;6.25;4.00;14.70;99.90;;;;;;5010633;28;11693;-45
2022/03/16 08:13:56;;;;;;;;;5.00;2.00;14.70;99.90;;;;;;5011390;28;11123;-46
2022/03/16 08:16:26;;;;;;;;;2.75;2.00;14.70;99.90;;;;;;5014297;28;10901;-45
2022/03/16 08:18:57;;;;;;;;;3.25;3.25;14.70;99.90;;;;;;5014735;28;11157;-48
2022/03/16 08:21:28;;;;;;;;;3.75;3.75;14.70;99.90;;;;;;5012163;28;11466;-45
2022/03/16 08:23:59;;;;;;;;;3.75;3.75;14.70;99.90;;;;;;5014288;28;11152;-46
2022/03/16 08:26:29;;;;;;;;;2.50;2.50;14.70;99.90;;;;;;5012165;28;11770;-48
2022/03/16 08:29:00;;;;;;;;;3.75;2.25;14.70;99.90;;;;;;5010682;28;12049;-48
2022/03/16 08:31:31;;;;;;;;;2.25;2.25;14.70;99.90;;;;;;5013068;28;11115;-46
2022/03/16 08:34:02;;;;;;;;;2.00;2.00;14.60;99.90;;;;;;5003955;28;11044;-48
2022/03/16 08:36:33;;;;;;;;;1.75;1.75;14.60;99.90;;;;;;5010810;28;11165;-47
2022/03/16 08:39:04;;;;;;;;;4.00;3.50;14.60;99.90;;;;;;5012662;28;11487;-46
2022/03/16 08:41:35;;;;;;;;;3.50;3.50;14.60;99.90;;;;;;5011312;28;11485;-45
2022/03/16 08:44:07;;;;;;;;;3.00;3.00;14.50;99.90;;;;;;5012095;28;11233;-49
2022/03/16 08:46:39;;;;;;;;;2.25;2.25;14.50;99.90;;;;;;5010451;28;11502;-48
2022/03/16 08:49:10;;;;;;;;;2.00;2.00;14.50;99.90;;;;;;5005835;28;11493;-47
2022/03/16 08:51:41;;;;;;;;;2.50;2.50;14.50;99.90;;;;;;5011860;28;11255;-48
2022/03/16 08:54:11;;;;;;;;;2.00;2.00;14.50;99.90;;;;;;5014916;28;11232;-48
2022/03/16 08:56:43;;;;;;;;;3.00;3.00;14.50;99.90;;;;;;5012103;28;11219;-49
2022/03/16 08:59:13;;;;;;;;;3.25;3.25;14.50;99.90;;;;;;5013397;28;11217;-48
2022/03/16 09:01:44;;;;;;;;;2.50;2.50;14.50;99.90;;;;;;5011294;28;11103;-48
2022/03/16 09:04:15;;;;;;;;;3.50;3.00;14.40;99.90;;;;;;5012022;28;11250;-50
2022/03/16 09:06:45;;;;;;;;;4.75;3.25;14.40;99.90;;;;;;5029109;28;11179;-48
2022/03/16 09:09:17;;;;;;;;;2.00;2.00;14.40;99.90;;;;;;5025131;28;11245;-51
2022/03/16 09:11:50;;;;;;;;;2.00;2.00;14.40;99.90;;;;;;5010786;28;11493;-48
2022/03/16 09:14:20;;;;;;;;;2.00;2.00;14.40;99.90;;;;;;5014299;28;11143;-45
2022/03/16 09:16:51;;;;;;;;;3.25;1.75;14.40;99.90;;;;;;5009912;28;11087;-48
2022/03/16 09:19:21;;;;;;;;;3.00;3.00;14.40;99.90;;;;;;5013923;28;11441;-46
2022/03/16 09:21:52;;;;;;;;;3.00;3.00;14.40;99.90;;;;;;5009806;28;11359;-48
2022/03/16 09:24:24;;;;;;;;;1.50;1.50;14.40;99.90;;;;;;5012512;28;11131;-47
2022/03/16 09:26:59;;;;;;;;;3.25;3.25;14.40;99.90;;;;;;5005747;28;11214;-45
2022/03/16 09:29:32;;;;;;;;;4.75;4.25;14.50;99.90;;;;;;5011977;28;11225;-47
2022/03/16 09:32:07;;;;;;;;;3.00;3.00;14.40;99.90;;;;;;5006676;28;11161;-46
2022/03/16 09:34:40;;;;;;;;;3.00;3.00;14.40;99.90;;;;;;5013487;28;11427;-48
2022/03/16 09:37:14;;;;;;;;;4.50;3.25;14.30;99.90;;;;;;5012994;28;11208;-49
2022/03/16 09:39:44;;;;;;;;;2.00;2.00;14.40;99.90;;;;;;5009325;28;11390;-46
2022/03/16 09:42:14;;;;;;;;;2.75;2.75;14.30;99.90;;;;;;5008496;28;11061;-49
2022/03/16 09:44:46;;;;;;;;;3.00;3.00;14.30;99.90;;;;;;5009942;28;11357;-48
2022/03/16 09:47:18;;;;;;;;;3.75;2.25;14.30;99.90;;;;;;5005446;28;11489;-48
2022/03/16 09:49:53;;;;;;;;;2.00;2.00;14.30;99.90;;;;;;5010799;28;11436;-49
2022/03/16 09:52:26;;;;;;;;;3.50;2.00;14.30;99.90;;;;;;5010027;28;11459;-48
2022/03/16 09:54:57;;;;;;;;;2.00;2.00;14.30;99.90;;;;;;5011765;28;12160;-47
2022/03/16 09:57:28;;;;;;;;;2.00;2.00;14.30;99.90;;;;;;5012372;28;11461;-50
2022/03/16 10:00:00;;;;;;;;;2.75;2.75;14.20;99.90;;;;;;5012156;28;11247;-47
2022/03/16 10:02:32;;;;;;;;;7.75;6.00;14.20;99.90;;;;;;5015447;28;11468;-48
2022/03/16 10:05:09;;;;;;;;;2.75;2.75;14.20;99.90;;;;;;5008121;28;11470;-49
2022/03/16 10:07:41;;;;;;;;;1.75;1.75;14.10;99.90;;;;;;5007007;28;11464;-50
2022/03/16 10:13:15;;;;;;;;;3.25;2.00;14.10;99.90;;;;;;5007429;28;11474;-46
2022/03/16 10:15:45;;;;;;;;;4.00;2.50;14.10;99.90;;;;;;5010147;28;11119;-46
2022/03/16 10:18:17;;;;;;;;;5.75;4.00;14.10;99.90;;;;;;5014142;28;11495;-46
2022/03/16 10:20:47;;;;;;;;;4.50;4.50;14.10;99.90;;;;;;5008093;28;11498;-46
2022/03/16 10:23:27;;;;;;;;;3.00;3.00;14.10;99.90;;;;;;5009274;28;11260;-47
2022/03/16 10:26:03;;;;;;;;;7.25;3.00;14.10;99.90;;;;;;5009391;28;11265;-50
2022/03/16 10:28:35;;;;;;;;;3.00;2.50;14.10;99.90;;;;;;5009469;28;11460;-45
2022/03/16 10:31:09;;;;;;;;;3.00;3.00;14.10;99.90;;;;;;5014528;28;11467;-45
2022/03/16 10:34:06;;;;;;;;;2.50;2.50;14.10;99.90;;;;;;5012908;28;12249;-47
2022/03/16 10:36:39;;;;;;;;;2.75;2.00;14.10;99.90;;;;;;5012493;28;11501;-45
2022/03/16 10:39:11;;;;;;;;;5.25;4.00;14.00;99.90;;;;;;5008496;28;11625;-44
2022/03/16 10:47:24;;;;;;;;;2.00;1.75;14.00;99.90;;;;;;5009788;28;11592;-46
2022/03/16 10:50:07;;;;;;;;;3.00;1.00;14.00;99.90;;;;;;5014667;28;11441;-45
2022/03/16 10:52:38;;;;;;;;;2.75;2.00;13.90;99.90;;;;;;5010310;28;11523;-46
2022/03/16 10:55:10;;;;;;;;;2.00;2.00;13.90;99.90;;;;;;5007252;28;11453;-50
2022/03/16 10:57:43;;;;;;;;;4.50;4.50;13.90;99.90;;;;;;5010655;28;11814;-45
2022/03/16 11:00:13;;;;;;;;;2.00;2.00;13.90;99.90;;;;;;5030111;28;11491;-49
2022/03/16 11:02:46;;;;;;;;;2.75;2.75;13.90;99.90;;;;;;5023651;28;11475;-46
2022/03/16 11:05:20;;;;;;;;;1.50;1.50;13.80;99.90;;;;;;5027868;28;11476;-50
2022/03/16 11:07:52;;;;;;;;;4.00;4.00;13.80;99.90;;;;;;5012944;28;11450;-48
2022/03/16 11:10:24;;;;;;;;;3.75;3.25;13.80;99.90;;;;;;5010439;28;11483;-48
2022/03/16 11:15:47;;;;;;;;;2.00;2.00;13.80;99.90;;;;;;5011177;28;11516;-49
2022/03/16 11:18:18;;;;;;;;;2.00;2.00;13.80;99.90;;;;;;5011191;28;11589;-46
2022/03/16 11:21:02;;;;;;;;;2.75;1.50;13.70;99.90;;;;;;5012867;28;11491;-49
2022/03/16 11:26:56;;;;;;;;;3.00;3.00;13.80;99.90;;;;;;5006030;28;11470;-48
2022/03/16 11:29:54;;;;;;;;;4.00;4.00;13.70;99.90;;;;;;5010735;28;11609;-47
2022/03/16 11:32:25;;;;;;;;;3.00;3.00;13.70;99.90;;;;;;5008476;28;11462;-49
2022/03/16 11:35:00;;;;;;;;;3.00;3.00;13.70;99.90;;;;;;5006770;28;12167;-49
2022/03/16 11:37:47;;;;;;;;;3.50;3.50;13.70;99.90;;;;;;5011109;28;11504;-47
2022/03/16 11:40:24;;;;;;;;;3.50;2.25;13.70;99.90;;;;;;5006022;28;11505;-48
2022/03/16 11:43:13;;;;;;;;;2.00;2.00;13.70;99.90;;;;;;5011312;28;11479;-47
2022/03/16 11:45:57;;;;;;;;;6.50;3.75;13.60;99.90;;;;;;5012683;28;11455;-46
2022/03/16 11:51:14;;;;;;;;;2.50;1.75;13.60;99.90;;;;;;5008587;28;11425;-49
2022/03/16 11:53:51;;;;;;;;;9.25;5.00;13.60;99.90;;;;;;5016029;28;11430;-47
2022/03/16 11:56:25;;;;;;;;;2.25;2.25;13.60;99.90;;;;;;5008330;28;11478;-48
2022/03/16 11:58:56;;;;;;;;;2.25;2.25;13.60;99.90;;;;;;5010539;28;11486;-47
2022/03/16 12:01:39;;;;;;;;;5.00;3.00;13.50;99.90;;;;;;5015009;28;11441;-47
2022/03/16 12:04:22;;;;;;;;;4.50;1.25;13.50;99.90;;;;;;5010733;28;11580;-50
2022/03/16 12:07:05;;;;;;;;;6.00;4.25;13.50;99.90;;;;;;5013884;28;11430;-48
2022/03/16 12:09:50;;;;;;;;;3.00;2.00;13.50;99.90;;;;;;5014898;28;11437;-47
2022/03/16 12:12:51;;;;;;;;;6.00;4.50;13.50;99.90;;;;;;5012877;28;11445;-49
2022/03/16 12:15:34;;;;;;;;;3.00;3.00;13.50;99.90;;;;;;5013025;28;11445;-50
2022/03/16 12:18:11;;;;;;;;;4.00;4.00;13.50;99.90;;;;;;5013843;28;11437;-49
2022/03/16 12:20:44;;;;;;;;;2.00;2.00;13.50;99.90;;;;;;5014475;28;11439;-47
2022/03/16 12:23:19;;;;;;;;;3.50;2.25;13.40;99.90;;;;;;5010090;28;11567;-48
2022/03/16 12:25:50;;;;;;;;;1.50;1.50;13.40;99.90;;;;;;5011751;28;11412;-47
2022/03/16 12:31:16;;;;;;;;;2.25;2.00;13.40;99.90;;;;;;5010220;28;11533;-47
2022/03/16 12:33:55;;;;;;;;;2.00;2.00;13.40;99.90;;;;;;5011442;28;11614;-49
2022/03/16 12:36:27;;;;;;;;;2.00;2.00;13.40;99.90;;;;;;5015750;28;11500;-49
2022/03/16 12:39:10;;;;;;;;;3.00;2.50;13.40;99.90;;;;;;5012526;28;11504;-47
2022/03/16 12:44:55;;;;;;;;;3.25;2.00;13.40;99.90;;;;;;5015637;28;11449;-47
2022/03/16 12:47:38;;;;;;;;;4.75;4.00;13.30;99.90;;;;;;5014003;28;11458;-46
2022/03/16 12:50:14;;;;;;;;;2.25;2.00;13.40;99.90;;;;;;5015546;28;11452;-48
2022/03/16 12:52:51;;;;;;;;;3.00;3.00;13.40;99.90;;;;;;5012944;28;11504;-47
2022/03/16 12:55:20;;;;;;;;;4.00;2.00;13.40;99.90;;;;;;5013303;28;11848;-47
2022/03/16 12:58:00;;;;;;;;;2.00;2.00;13.40;99.90;;;;;;5015019;28;12239;-47
2022/03/16 13:00:38;;;;;;;;;2.25;2.25;13.30;99.90;;;;;;5009746;28;11445;-48
2022/03/16 13:03:13;;;;;;;;;2.75;2.75;13.30;99.90;;;;;;5010253;28;11485;-48
2022/03/16 13:05:44;;;;;;;;;2.75;2.75;13.30;99.90;;;;;;5017002;28;12201;-51
2022/03/16 13:08:21;;;;;;;;;4.50;2.50;13.30;99.90;;;;;;5012464;28;11469;-49
2022/03/16 13:11:17;;;;;;;;;2.25;2.00;13.30;99.90;;;;;;5013808;28;11458;-47
2022/03/16 13:13:58;;;;;;;;;2.00;2.00;13.20;99.90;;;;;;5011556;28;11477;-49
2022/03/16 13:16:34;;;;;;;;;3.00;3.00;13.20;99.90;;;;;;5008776;28;11459;-48
2022/03/16 13:19:24;;;;;;;;;3.00;3.00;13.20;99.90;;;;;;5014196;28;12002;-46
2022/03/16 13:22:05;;;;;;;;;3.00;3.00;13.20;99.90;;;;;;5015632;28;11550;-46
2022/03/16 13:24:35;;;;;;;;;2.50;2.50;13.20;99.90;;;;;;5015849;28;11792;-48
2022/03/16 13:27:08;;;;;;;;;2.25;2.25;13.20;99.90;;;;;;5011986;28;11477;-45
2022/03/16 13:29:44;;;;;;;;;3.75;3.00;13.20;99.90;;;;;;5015286;28;11450;-46
2022/03/16 13:32:14;;;;;;;;;3.25;3.00;13.20;99.90;;;;;;5008492;28;11515;-46
2022/03/16 13:34:47;;;;;;;;;1.00;1.00;13.20;99.90;;;;;;5012827;28;11477;-45
2022/03/16 13:37:29;;;;;;;;;5.75;3.75;13.20;99.90;;;;;;5014823;28;11492;-49
2022/03/16 13:40:11;;;;;;;;;1.50;1.50;13.20;99.90;;;;;;5014394;28;11518;-48